createdAt,value
2023-11-17T00:00:02.373Z,-0.29
2023-11-17T00:05:03.092Z,-0.6
2023-11-17T00:10:03.092Z,-0.5
2023-11-17T00:15:02.921Z,-0.24
2023-11-17T00:20:02.828Z,-0.33
2023-11-17T00:25:02.426Z,-0.45
2023-11-17T00:30:03.102Z,-1.02
2023-11-17T00:35:03.252Z,-1.47
2023-11-17T00:40:02.884Z,-1.42
2023-11-17T00:45:02.730Z,-1.57
2023-11-17T00:50:02.600Z,-1.49
2023-11-17T00:55:03.294Z,-1.56
2023-11-17T01:00:02.902Z,-0.97
2023-11-17T01:05:02.610Z,-0.5
2023-11-17T01:10:02.624Z,-0.53
2023-11-17T01:15:02.441Z,-0.3
2023-11-17T01:20:02.461Z,-0.23
2023-11-17T01:25:03.188Z,-0.25
2023-11-17T01:30:02.860Z,-0.21
2023-11-17T01:35:02.587Z,-0.17
2023-11-17T01:40:02.338Z,-0.15
2023-11-17T01:45:03.114Z,-0.01
2023-11-17T01:50:03.063Z,-0.09
2023-11-17T01:55:03.802Z,-0.16
2023-11-17T02:00:02.660Z,-0.09
2023-11-17T02:05:02.368Z,0.02
2023-11-17T02:10:03.208Z,-0.04
2023-11-17T02:15:03.250Z,-0.13
2023-11-17T02:20:02.896Z,-0.15
2023-11-17T02:25:03.682Z,-0.33
2023-11-17T02:30:02.772Z,-0.54
2023-11-17T02:35:02.423Z,-0.51
2023-11-17T02:40:03.128Z,-0.37
2023-11-17T02:45:02.852Z,-0.16
2023-11-17T02:50:02.525Z,-0.08
2023-11-17T02:55:03.748Z,0.02
2023-11-17T03:00:02.862Z,0.09
2023-11-17T03:05:02.514Z,0.14
2023-11-17T03:10:02.175Z,0.23
2023-11-17T03:15:02.912Z,0.37
2023-11-17T03:20:02.589Z,0.42
2023-11-17T03:25:02.288Z,0.53
2023-11-17T03:30:03.151Z,0.66
2023-11-17T03:35:02.883Z,0.85
2023-11-17T03:40:02.628Z,0.92
2023-11-17T03:45:02.550Z,1.08
2023-11-17T03:50:02.235Z,1.12
2023-11-17T03:55:03.655Z,1.22
2023-11-17T04:00:03.031Z,1.31
2023-11-17T04:05:02.726Z,1.34
2023-11-17T04:10:02.499Z,1.39
2023-11-17T04:15:03.714Z,1.48
2023-11-17T04:20:03.131Z,1.54
2023-11-17T04:25:03.751Z,1.55
2023-11-17T04:30:02.589Z,1.56
2023-11-17T04:35:02.282Z,1.63
2023-11-17T04:40:03.429Z,1.73
2023-11-17T04:45:02.705Z,1.77
2023-11-17T04:50:02.357Z,1.78
2023-11-17T04:55:03.764Z,1.85
2023-11-17T05:00:02.805Z,1.87
2023-11-17T05:05:02.427Z,1.88
2023-11-17T05:10:03.216Z,1.94
2023-11-17T05:15:02.767Z,1.95
2023-11-17T05:20:02.540Z,1.96
2023-11-17T05:25:02.318Z,2
2023-11-17T05:30:02.987Z,2.03
2023-11-17T05:35:02.586Z,2.06
2023-11-17T05:40:02.329Z,2.08
2023-11-17T05:45:03.501Z,2.1
2023-11-17T05:50:02.979Z,2.1
2023-11-17T05:55:03.954Z,2.11
2023-11-17T06:00:02.345Z,2.07
2023-11-17T06:05:02.589Z,2.13
2023-11-17T06:10:02.311Z,2.15
2023-11-17T06:15:02.986Z,2.15
2023-11-17T06:20:02.802Z,2.22
2023-11-17T06:25:02.968Z,2.25
2023-11-17T06:30:02.649Z,2.26
2023-11-17T06:35:02.345Z,2.27
2023-11-17T06:40:03.193Z,2.27
2023-11-17T06:45:03.048Z,2.26
2023-11-17T06:50:02.917Z,2.26
2023-11-17T06:55:07.544Z,2.25
2023-11-17T07:00:03.122Z,2.27
2023-11-17T07:05:02.584Z,2.3
2023-11-17T07:10:02.397Z,2.32
2023-11-17T07:15:02.228Z,2.35
2023-11-17T07:20:02.930Z,2.32
2023-11-17T07:25:02.658Z,2.41
2023-11-17T07:30:02.400Z,2.4
2023-11-17T07:35:03.122Z,2.46
2023-11-17T07:40:03.097Z,2.48
2023-11-17T07:45:02.787Z,2.5
2023-11-17T07:50:02.517Z,2.57
2023-11-17T07:55:03.066Z,2.67
2023-11-17T08:00:02.892Z,2.75
2023-11-17T08:05:02.664Z,2.81
2023-11-17T08:10:02.598Z,2.89
2023-11-17T08:15:02.226Z,2.98
2023-11-17T08:20:03.029Z,3.06
2023-11-17T08:25:02.738Z,3.03
2023-11-17T08:30:02.483Z,3.12
2023-11-17T08:35:02.262Z,3.11
2023-11-17T08:40:02.398Z,3.2
2023-11-17T08:45:03.064Z,3.36
2023-11-17T08:50:03.271Z,3.37
2023-11-17T08:55:03.743Z,3.43
2023-11-17T09:00:03.078Z,3.46
2023-11-17T09:05:02.758Z,3.42
2023-11-17T09:10:02.542Z,3.48
2023-11-17T09:15:02.306Z,3.55
2023-11-17T09:20:03.361Z,3.59
2023-11-17T09:25:02.715Z,3.57
2023-11-17T09:30:02.474Z,3.6
2023-11-17T09:35:02.351Z,3.58
2023-11-17T09:40:03.172Z,3.63
2023-11-17T09:45:02.941Z,3.62
2023-11-17T09:50:02.499Z,3.66
2023-11-17T09:55:03.182Z,3.72
2023-11-17T10:00:03.021Z,3.74
2023-11-17T10:05:02.678Z,3.73
2023-11-17T10:10:02.385Z,3.71
2023-11-17T10:15:03.057Z,3.81
2023-11-17T10:20:02.796Z,3.88
2023-11-17T10:25:02.595Z,4
2023-11-17T10:30:02.612Z,3.97
2023-11-17T10:35:02.299Z,4.05
2023-11-17T10:40:05.788Z,4.06
2023-11-17T10:45:04.464Z,4.06
2023-11-17T10:50:02.346Z,4.24
2023-11-17T10:55:04.639Z,4.28
2023-11-17T11:00:02.840Z,4.36
2023-11-17T11:05:02.719Z,4.4
2023-11-17T11:10:02.499Z,4.29
2023-11-17T11:15:02.616Z,4.32
2023-11-17T11:20:10.638Z,4.29
2023-11-17T11:25:03.060Z,4.32
2023-11-17T11:30:02.771Z,4.29
2023-11-17T11:35:02.448Z,4.32
2023-11-17T11:40:02.746Z,4.43
2023-11-17T11:45:03.050Z,4.61
2023-11-17T11:50:02.741Z,4.48
2023-11-17T11:55:03.175Z,4.46
2023-11-17T12:00:03.231Z,4.63
2023-11-17T12:05:02.984Z,4.72
2023-11-17T12:10:02.729Z,4.79
2023-11-17T12:15:02.607Z,4.59
2023-11-17T12:20:02.298Z,4.72
2023-11-17T12:25:03.087Z,5.08
2023-11-17T12:30:02.812Z,5.54
2023-11-17T12:35:02.691Z,6.47
2023-11-17T12:40:02.429Z,5.77
2023-11-17T12:45:03.246Z,5.07
2023-11-17T12:50:02.825Z,5
2023-11-17T12:55:04.284Z,5.12
2023-11-17T13:00:02.329Z,5.01
2023-11-17T13:05:03.224Z,4.92
2023-11-17T13:10:02.880Z,5.06
2023-11-17T13:15:02.657Z,5.29
2023-11-17T13:20:02.482Z,5.03
2023-11-17T13:25:02.209Z,4.89
2023-11-17T13:30:02.921Z,5.03
2023-11-17T13:35:02.588Z,5.27
2023-11-17T13:40:02.303Z,5.2
2023-11-17T13:45:03.137Z,5.1
2023-11-17T13:50:02.773Z,4.99
2023-11-17T13:55:03.998Z,4.9
2023-11-17T14:00:03.390Z,4.92
2023-11-17T14:05:02.862Z,4.89
2023-11-17T14:10:02.717Z,4.88
2023-11-17T14:15:02.538Z,4.89
2023-11-17T14:20:02.253Z,4.95
2023-11-17T14:25:02.963Z,4.97
2023-11-17T14:30:02.717Z,5.02
2023-11-17T14:35:02.528Z,5.01
2023-11-17T14:40:02.295Z,5.02
2023-11-17T14:45:03.032Z,5.1
2023-11-17T14:50:02.716Z,5.19
2023-11-17T14:55:03.427Z,5.06
2023-11-17T15:00:03.172Z,5.01
2023-11-17T15:05:02.777Z,5
2023-11-17T15:10:02.505Z,5.01
2023-11-17T15:15:02.319Z,5.04
2023-11-17T15:20:03.017Z,4.94
2023-11-17T15:25:02.771Z,4.97
2023-11-17T15:30:02.546Z,5.06
2023-11-17T15:35:02.293Z,5.02
2023-11-17T15:40:02.990Z,5.04
2023-11-17T15:45:02.731Z,4.99
2023-11-17T15:50:02.560Z,4.92
2023-11-17T15:55:03.872Z,4.78
2023-11-17T16:00:02.779Z,4.76
2023-11-17T16:05:02.454Z,4.73
2023-11-17T16:10:03.151Z,4.67
2023-11-17T16:15:02.876Z,4.65
2023-11-17T16:20:03.001Z,4.63
2023-11-17T16:25:02.504Z,4.68
2023-11-17T16:30:02.254Z,4.79
2023-11-17T16:35:02.832Z,4.67
2023-11-17T16:40:02.600Z,4.62
2023-11-17T16:45:02.366Z,4.7
2023-11-17T16:50:03.020Z,4.49
2023-11-17T16:55:03.886Z,4.2
2023-11-17T17:00:02.693Z,4.26
2023-11-17T17:05:02.452Z,3.98
2023-11-17T17:10:03.108Z,3.8
2023-11-17T17:15:02.848Z,3.57
2023-11-17T17:20:02.849Z,3.49
2023-11-17T17:25:02.578Z,3.28
2023-11-17T17:30:02.388Z,3.25
2023-11-17T17:35:03.033Z,3.06
2023-11-17T17:40:02.780Z,2.87
2023-11-17T17:45:02.599Z,3.29
2023-11-17T17:50:02.240Z,3.44
2023-11-17T17:55:04.186Z,3.62
2023-11-17T18:00:02.788Z,3.58
2023-11-17T18:05:02.551Z,3.42
2023-11-17T18:10:02.249Z,3.45
2023-11-17T18:15:03.074Z,3.64
2023-11-17T18:20:02.885Z,3.83
2023-11-17T18:25:02.616Z,3.92
2023-11-17T18:30:02.324Z,4.09
2023-11-17T18:35:03.033Z,4.22
2023-11-17T18:40:02.861Z,4.46
2023-11-17T18:45:02.873Z,4.43
2023-11-17T18:50:02.521Z,4.46
2023-11-17T18:55:03.168Z,4.5
2023-11-17T19:00:03.072Z,4.46
2023-11-17T19:05:03.101Z,4.38
2023-11-17T19:10:02.867Z,4.33
2023-11-17T19:15:02.995Z,4.42
2023-11-17T19:20:02.957Z,4.42
2023-11-17T19:25:02.700Z,4.41
2023-11-17T19:30:02.561Z,4.35
2023-11-17T19:35:02.296Z,4.32
2023-11-17T19:40:02.364Z,4.33
2023-11-17T19:45:03.064Z,4.21
2023-11-17T19:50:04.115Z,4.07
2023-11-17T19:55:03.407Z,3.9
2023-11-17T20:00:02.300Z,3.7
2023-11-17T20:05:03.012Z,3.76
2023-11-17T20:10:02.746Z,3.73
2023-11-17T20:15:02.473Z,3.76
2023-11-17T20:20:02.506Z,3.76
2023-11-17T20:25:02.200Z,3.85
2023-11-17T20:30:02.921Z,3.79
2023-11-17T20:35:02.605Z,3.71
2023-11-17T20:40:02.377Z,3.65
2023-11-17T20:45:02.997Z,3.69
2023-11-17T20:50:02.680Z,3.68
2023-11-17T20:55:03.584Z,3.65
2023-11-17T21:00:02.405Z,3.56
2023-11-17T21:05:03.234Z,3.55
2023-11-17T21:10:02.851Z,3.55
2023-11-17T21:15:02.555Z,3.55
2023-11-17T21:20:02.248Z,3.49
2023-11-17T21:25:02.932Z,3.49
2023-11-17T21:30:02.701Z,3.49
2023-11-17T21:35:07.285Z,3.47
2023-11-17T21:40:02.689Z,3.43
2023-11-17T21:45:02.474Z,3.35
2023-11-17T21:50:03.119Z,3.26
2023-11-17T21:55:03.696Z,3.19
2023-11-17T22:00:02.721Z,3.15
2023-11-17T22:05:02.274Z,3.07
2023-11-17T22:10:02.936Z,2.9
2023-11-17T22:15:02.689Z,2.72
2023-11-17T22:20:02.409Z,2.54
2023-11-17T22:25:03.216Z,2.4
2023-11-17T22:30:02.816Z,2.31
2023-11-17T22:35:02.744Z,2.23
2023-11-17T22:40:02.457Z,2.21
2023-11-17T22:45:02.660Z,2.19
2023-11-17T22:50:02.286Z,2.21
2023-11-17T22:55:04.820Z,2.21
2023-11-17T23:00:03.188Z,2.15
2023-11-17T23:05:02.799Z,2.07
2023-11-17T23:10:02.773Z,2
2023-11-17T23:15:02.509Z,1.96
2023-11-17T23:20:03.996Z,1.96
2023-11-17T23:25:02.713Z,1.95
2023-11-17T23:30:03.128Z,1.85
2023-11-17T23:35:02.880Z,1.84
2023-11-17T23:40:02.387Z,1.84
2023-11-17T23:45:03.074Z,1.83
2023-11-17T23:50:02.818Z,1.86
2023-11-17T23:55:03.288Z,1.87
